createdAt,value
2022-11-13T00:01:23.501Z,63.53
2022-11-13T00:04:15.363Z,63.39
2022-11-13T00:07:02.075Z,63.17
2022-11-13T00:09:48.505Z,63.58
2022-11-13T00:12:37.106Z,62.97
2022-11-13T00:15:23.492Z,62.70
2022-11-13T00:18:10.593Z,62.45
2022-11-13T00:20:58.449Z,63.41
2022-11-13T00:23:52.621Z,63.19
2022-11-13T00:26:39.934Z,62.52
2022-11-13T00:29:26.110Z,62.09
2022-11-13T00:32:12.079Z,63.02
2022-11-13T00:34:58.148Z,62.43
2022-11-13T00:37:44.326Z,63.66
2022-11-13T00:40:30.381Z,63.06
2022-11-13T00:43:16.478Z,64.09
2022-11-13T00:46:02.453Z,63.37
2022-11-13T00:48:44.381Z,62.81
2022-11-13T00:52:09.547Z,62.87
2022-11-13T00:54:51.466Z,62.71
2022-11-13T01:06:01.650Z,63.28
2022-11-13T01:08:48.286Z,63.84
2022-11-13T01:11:34.506Z,63.40
2022-11-13T01:14:20.666Z,63.33
2022-11-13T01:17:07.497Z,63.79
2022-11-13T01:20:36.472Z,63.99
2022-11-13T01:23:22.422Z,64.00
2022-11-13T01:30:24.539Z,63.89
2022-11-13T01:33:09.443Z,63.30
2022-11-13T01:35:51.378Z,64.01
2022-11-13T01:43:32.602Z,63.76
2022-11-13T01:46:35.818Z,63.98
2022-11-13T01:49:29.347Z,64.45
2022-11-13T01:56:57.771Z,64.20
2022-11-13T01:59:48.428Z,64.29
2022-11-13T02:02:34.377Z,64.67
2022-11-13T02:05:21.006Z,63.84
2022-11-13T02:08:06.869Z,64.05
2022-11-13T02:10:52.925Z,63.42
2022-11-13T02:13:39.017Z,63.71
2022-11-13T02:16:24.846Z,63.98
2022-11-13T02:19:17.792Z,63.85
2022-11-13T02:22:20.424Z,64.28
2022-11-13T02:25:07.644Z,64.11
2022-11-13T02:27:53.695Z,64.12
2022-11-13T02:30:39.473Z,64.33
2022-11-13T02:33:30.952Z,64.66
2022-11-13T02:36:16.929Z,64.94
2022-11-13T02:39:06.828Z,64.16
2022-11-13T02:41:52.598Z,64.69
2022-11-13T02:44:38.731Z,64.39
2022-11-13T02:47:24.745Z,65.33
2022-11-13T02:50:11.703Z,64.85
2022-11-13T02:52:57.832Z,65.63
2022-11-13T02:55:43.850Z,66.42
2022-11-13T02:58:30.458Z,66.17
2022-11-13T03:01:17.057Z,66.53
2022-11-13T03:04:02.849Z,66.79
2022-11-13T03:06:48.993Z,65.10
2022-11-13T03:09:35.303Z,65.54
2022-11-13T03:16:36.625Z,66.81
2022-11-13T03:19:27.292Z,66.73
2022-11-13T03:22:13.310Z,66.68
2022-11-13T03:24:55.377Z,66.49
2022-11-13T03:27:37.404Z,66.54
2022-11-13T03:30:19.518Z,65.98
2022-11-13T03:33:01.410Z,66.21
2022-11-13T03:35:46.949Z,66.33
2022-11-13T03:38:25.814Z,66.80
2022-11-13T03:41:14.909Z,66.38
2022-11-13T03:43:57.374Z,65.79
2022-11-13T03:46:39.364Z,65.52
2022-11-13T03:49:21.365Z,65.66
2022-11-13T03:52:10.876Z,65.49
2022-11-13T03:54:58.122Z,65.61
2022-11-13T03:57:44.162Z,65.53
2022-11-13T04:00:30.385Z,65.13
2022-11-13T04:03:16.235Z,66.03
2022-11-13T04:06:02.407Z,65.79
2022-11-13T04:08:48.426Z,65.59
2022-11-13T04:11:34.469Z,65.84
2022-11-13T04:15:05.649Z,65.76
2022-11-13T04:17:51.503Z,65.95
2022-11-13T04:20:37.510Z,66.04
2022-11-13T04:23:23.476Z,65.73
2022-11-13T04:26:09.780Z,65.58
2022-11-13T04:28:55.814Z,65.82
2022-11-13T04:31:41.874Z,65.68
2022-11-13T04:34:28.114Z,65.37
2022-11-13T04:37:14.378Z,65.47
2022-11-13T04:40:00.302Z,65.40
2022-11-13T04:42:49.167Z,64.92
2022-11-13T04:45:35.358Z,64.92
2022-11-13T04:48:21.237Z,65.48
2022-11-13T04:51:07.404Z,65.17
2022-11-13T04:53:53.514Z,63.45
2022-11-13T04:56:39.750Z,65.63
2022-11-13T04:59:25.851Z,65.08
2022-11-13T05:02:11.911Z,66.08
2022-11-13T05:05:03.376Z,65.90
2022-11-13T05:07:50.911Z,66.48
2022-11-13T05:10:37.143Z,65.99
2022-11-13T05:13:23.022Z,66.47
2022-11-13T05:16:11.369Z,66.59
2022-11-13T05:23:18.915Z,66.92
2022-11-13T05:26:10.674Z,65.02
2022-11-13T05:28:58.534Z,66.45
2022-11-13T05:31:44.628Z,66.72
2022-11-13T05:34:30.763Z,67.16
2022-11-13T05:37:17.335Z,66.29
2022-11-13T05:40:04.083Z,64.94
2022-11-13T05:42:50.124Z,66.52
2022-11-13T05:45:36.414Z,66.70
2022-11-13T05:48:22.402Z,67.36
2022-11-13T05:51:14.700Z,65.98
2022-11-13T05:54:01.402Z,67.11
2022-11-13T05:56:47.560Z,67.10
2022-11-13T05:59:33.550Z,67.51
2022-11-13T06:02:19.963Z,66.55
2022-11-13T06:05:06.548Z,67.21
2022-11-13T06:07:52.494Z,67.32
2022-11-13T06:10:39.284Z,67.67
2022-11-13T06:13:25.454Z,67.16
2022-11-13T06:16:16.161Z,67.64
2022-11-13T06:19:04.952Z,67.95
2022-11-13T06:21:51.606Z,67.67
2022-11-13T06:24:37.742Z,66.97
2022-11-13T06:27:40.063Z,67.21
2022-11-13T06:30:26.211Z,65.51
2022-11-13T06:33:12.402Z,66.45
2022-11-13T06:35:58.410Z,66.13
2022-11-13T06:38:45.025Z,65.76
2022-11-13T06:41:31.492Z,66.32
2022-11-13T06:44:17.311Z,66.90
2022-11-13T06:47:03.697Z,66.31
2022-11-13T06:49:49.734Z,66.99
2022-11-13T06:52:35.881Z,65.58
2022-11-13T06:55:22.114Z,65.39
2022-11-13T06:58:08.570Z,66.31
2022-11-13T07:00:55.396Z,65.65
2022-11-13T07:03:37.859Z,65.47
2022-11-13T07:06:22.470Z,67.47
2022-11-13T07:09:08.498Z,68.54
2022-11-13T07:11:54.569Z,68.26
2022-11-13T07:14:40.772Z,69.12
2022-11-13T07:17:28.747Z,69.29
2022-11-13T07:20:16.206Z,68.27
2022-11-13T07:23:03.206Z,68.28
2022-11-13T07:25:49.792Z,66.50
2022-11-13T07:28:35.489Z,66.22
2022-11-13T07:31:22.100Z,65.91
2022-11-13T07:34:07.995Z,66.32
2022-11-13T07:36:54.026Z,67.92
2022-11-13T07:39:40.128Z,68.24
2022-11-13T07:42:26.359Z,69.27
2022-11-13T07:45:12.413Z,67.39
2022-11-13T07:48:02.620Z,67.25
2022-11-13T07:50:48.842Z,68.87
2022-11-13T07:53:36.022Z,67.93
2022-11-13T07:56:23.419Z,67.38
2022-11-13T07:59:09.603Z,67.93
2022-11-13T08:01:51.633Z,68.45
2022-11-13T08:04:38.652Z,68.79
2022-11-13T08:07:27.293Z,68.14
2022-11-13T08:10:16.947Z,67.20
2022-11-13T08:13:10.563Z,67.93
2022-11-13T08:15:59.415Z,69.16
2022-11-13T08:18:45.366Z,69.51
2022-11-13T08:21:31.525Z,69.33
2022-11-13T08:24:17.472Z,68.29
2022-11-13T08:27:08.782Z,67.24
2022-11-13T08:29:55.077Z,68.33
2022-11-13T08:32:41.245Z,69.38
2022-11-13T08:35:29.569Z,69.50
2022-11-13T08:38:16.479Z,69.00
2022-11-13T08:41:08.988Z,69.87
2022-11-13T08:44:12.566Z,69.67
2022-11-13T08:46:58.789Z,68.05
2022-11-13T08:49:45.007Z,69.04
2022-11-13T08:52:31.117Z,69.12
2022-11-13T08:55:17.574Z,68.16
2022-11-13T08:58:07.120Z,67.85
2022-11-13T09:00:53.317Z,67.04
2022-11-13T09:03:40.368Z,66.77
2022-11-13T09:06:26.410Z,67.33
2022-11-13T09:09:12.463Z,65.23
2022-11-13T09:11:58.451Z,67.40
2022-11-13T09:14:44.596Z,66.79
2022-11-13T09:17:31.485Z,68.39
2022-11-13T09:20:22.481Z,68.50
2022-11-13T09:23:09.646Z,68.14
2022-11-13T09:25:56.565Z,68.43
2022-11-13T09:28:43.396Z,70.40
2022-11-13T09:31:30.148Z,70.80
2022-11-13T09:34:16.356Z,70.49
2022-11-13T09:37:02.627Z,69.48
2022-11-13T09:39:48.792Z,68.37
2022-11-13T09:42:36.950Z,67.44
2022-11-13T09:45:23.386Z,68.80
2022-11-13T09:48:34.387Z,68.21
2022-11-13T09:51:25.062Z,68.98
2022-11-13T09:54:14.348Z,67.84
2022-11-13T09:57:37.289Z,64.86
2022-11-13T10:00:21.393Z,65.07
2022-11-13T10:03:54.107Z,62.49
2022-11-13T10:06:40.599Z,66.17
2022-11-13T10:09:33.643Z,68.44
2022-11-13T10:12:20.855Z,63.70
2022-11-13T10:15:10.395Z,66.90
2022-11-13T10:18:04.000Z,65.74
2022-11-13T10:20:54.266Z,66.70
2022-11-13T10:23:40.146Z,65.50
2022-11-13T10:26:28.880Z,65.05
2022-11-13T10:29:19.813Z,66.38
2022-11-13T10:32:26.974Z,67.36
2022-11-13T10:35:35.237Z,66.36
2022-11-13T10:38:30.519Z,68.60
2022-11-13T10:41:33.245Z,65.92
2022-11-13T10:44:27.223Z,66.37
2022-11-13T10:47:36.145Z,63.65
2022-11-13T10:50:22.366Z,62.65
2022-11-13T10:53:17.590Z,63.57
2022-11-13T10:56:13.340Z,62.50
2022-11-13T10:59:13.907Z,62.29
2022-11-13T11:02:11.760Z,61.08
2022-11-13T11:05:16.556Z,62.66
2022-11-13T11:08:09.189Z,61.93
2022-11-13T11:11:35.787Z,61.43
2022-11-13T11:14:42.637Z,59.03
2022-11-13T11:17:44.088Z,59.06
2022-11-13T11:21:01.451Z,61.05
2022-11-13T11:24:03.246Z,60.54
2022-11-13T11:27:03.973Z,61.75
2022-11-13T11:30:07.109Z,61.18
2022-11-13T11:33:01.226Z,60.25
2022-11-13T11:35:56.515Z,58.25
2022-11-13T11:38:53.307Z,57.06
2022-11-13T11:41:51.622Z,58.50
2022-11-13T11:45:10.884Z,56.60
2022-11-13T11:47:59.055Z,59.66
2022-11-13T11:50:57.040Z,59.53
2022-11-13T11:54:21.922Z,56.37
2022-11-13T11:57:33.564Z,57.09
2022-11-13T12:00:20.380Z,57.61
2022-11-13T12:03:35.125Z,56.03
2022-11-13T12:06:49.663Z,56.62
2022-11-13T12:09:51.473Z,54.88
2022-11-13T12:12:55.338Z,54.94
2022-11-13T12:15:51.010Z,55.48
2022-11-13T12:18:49.454Z,57.05
2022-11-13T12:21:52.702Z,55.28
2022-11-13T12:25:00.654Z,54.76
2022-11-13T12:28:08.115Z,54.08
2022-11-13T12:31:05.122Z,53.21
2022-11-13T12:34:01.893Z,53.63
2022-11-13T12:36:48.402Z,53.50
2022-11-13T12:40:00.649Z,52.85
2022-11-13T12:43:08.990Z,54.52
2022-11-13T12:45:58.379Z,56.05
2022-11-13T12:48:48.148Z,55.87
2022-11-13T12:51:54.540Z,54.75
2022-11-13T12:54:41.271Z,57.07
2022-11-13T12:57:30.674Z,58.24
2022-11-13T13:00:28.902Z,56.90
2022-11-13T13:03:42.987Z,56.25
2022-11-13T13:07:02.313Z,56.13
2022-11-13T13:09:51.068Z,54.95
2022-11-13T13:12:58.556Z,56.23
2022-11-13T13:15:43.960Z,55.80
2022-11-13T13:18:42.735Z,57.38
2022-11-13T13:21:41.049Z,56.84
2022-11-13T13:24:36.361Z,55.90
2022-11-13T13:27:28.005Z,54.63
2022-11-13T13:30:44.994Z,54.69
2022-11-13T13:33:44.715Z,56.76
2022-11-13T13:36:39.524Z,55.84
2022-11-13T13:39:33.817Z,56.74
2022-11-13T13:42:54.072Z,57.25
2022-11-13T13:46:18.267Z,56.56
2022-11-13T13:49:09.437Z,56.49
2022-11-13T13:51:57.309Z,55.96
2022-11-13T13:54:45.402Z,55.37
2022-11-13T13:57:31.343Z,54.59
2022-11-13T14:00:19.190Z,55.90
2022-11-13T14:03:16.997Z,57.87
2022-11-13T14:06:25.478Z,57.95
2022-11-13T14:09:18.247Z,58.38
2022-11-13T14:12:18.394Z,58.70
2022-11-13T14:15:25.707Z,58.27
2022-11-13T14:18:22.574Z,59.43
2022-11-13T14:21:26.760Z,58.65
2022-11-13T14:24:34.725Z,58.50
2022-11-13T14:27:24.699Z,58.20
2022-11-13T14:30:22.161Z,56.94
2022-11-13T14:33:10.702Z,58.84
2022-11-13T14:35:57.825Z,58.61
2022-11-13T14:38:51.774Z,58.98
2022-11-13T14:41:46.299Z,59.25
2022-11-13T14:44:34.377Z,59.17
2022-11-13T14:47:26.594Z,59.53
2022-11-13T14:50:23.101Z,59.31
2022-11-13T14:53:10.502Z,59.32
2022-11-13T14:55:59.222Z,59.39
2022-11-13T14:58:49.238Z,58.80
2022-11-13T15:01:35.579Z,58.75
2022-11-13T15:04:21.877Z,58.68
2022-11-13T15:07:32.243Z,59.15
2022-11-13T15:10:20.026Z,59.08
2022-11-13T15:13:17.639Z,59.19
2022-11-13T15:16:04.217Z,58.59
2022-11-13T15:19:06.318Z,58.60
2022-11-13T15:22:25.118Z,58.62
2022-11-13T15:24:58.577Z,58.57
2022-11-13T15:27:44.752Z,58.82
2022-11-13T15:30:30.972Z,59.25
2022-11-13T15:33:17.355Z,58.95
2022-11-13T15:36:03.841Z,59.16
2022-11-13T15:38:49.856Z,59.15
2022-11-13T15:41:36.458Z,59.34
2022-11-13T15:44:22.539Z,59.07
2022-11-13T15:47:31.049Z,59.22
2022-11-13T15:50:17.423Z,59.51
2022-11-13T15:53:05.407Z,60.28
2022-11-13T15:58:48.887Z,59.87
2022-11-13T16:01:35.513Z,60.09
2022-11-13T16:07:23.386Z,60.19
2022-11-13T16:10:10.582Z,60.62
2022-11-13T16:12:56.776Z,60.57
2022-11-13T16:15:43.034Z,60.55
2022-11-13T16:18:31.435Z,60.80
2022-11-13T16:21:18.850Z,60.87
2022-11-13T16:24:05.393Z,60.54
2022-11-13T16:26:55.799Z,60.76
2022-11-13T16:29:41.711Z,60.88
2022-11-13T16:32:28.231Z,61.69
2022-11-13T16:35:19.217Z,61.39
2022-11-13T16:38:12.901Z,61.39
2022-11-13T16:40:58.931Z,61.85
2022-11-13T16:43:45.308Z,62.22
2022-11-13T16:46:36.379Z,61.39
2022-11-13T16:49:22.323Z,61.76
2022-11-13T16:52:10.580Z,62.49
2022-11-13T16:54:56.666Z,62.40
2022-11-13T16:57:43.293Z,62.59
2022-11-13T17:00:29.799Z,62.68
2022-11-13T17:03:15.648Z,62.92
2022-11-13T17:06:01.955Z,64.13
2022-11-13T17:08:52.313Z,63.40
2022-11-13T17:11:38.572Z,64.24
2022-11-13T17:14:24.692Z,63.98
2022-11-13T17:17:13.435Z,63.85
2022-11-13T17:19:59.595Z,63.93
2022-11-13T17:22:48.609Z,63.49
2022-11-13T17:25:34.674Z,63.32
2022-11-13T17:28:21.214Z,63.66
2022-11-13T17:31:09.741Z,64.39
2022-11-13T17:33:55.952Z,64.12
2022-11-13T17:36:43.430Z,64.14
2022-11-13T17:39:29.470Z,64.79
2022-11-13T17:42:15.690Z,64.56
2022-11-13T17:45:02.227Z,64.88
2022-11-13T17:47:50.042Z,64.30
2022-11-13T17:50:36.401Z,62.77
2022-11-13T17:53:22.595Z,63.46
2022-11-13T17:56:11.777Z,65.08
2022-11-13T17:58:57.841Z,64.60
2022-11-13T18:01:44.196Z,64.08
2022-11-13T18:04:31.844Z,62.92
2022-11-13T18:07:17.952Z,63.07
2022-11-13T18:10:04.455Z,63.24
2022-11-13T18:12:50.295Z,63.24
2022-11-13T18:15:39.036Z,63.37
2022-11-13T18:18:25.332Z,64.30
2022-11-13T18:21:24.899Z,63.87
2022-11-13T18:24:17.332Z,64.84
2022-11-13T18:27:06.108Z,64.62
2022-11-13T18:29:52.615Z,65.62
2022-11-13T18:32:39.074Z,65.25
2022-11-13T18:35:29.849Z,65.59
2022-11-13T18:38:15.973Z,66.19
2022-11-13T18:41:09.269Z,65.83
2022-11-13T18:43:51.895Z,65.39
2022-11-13T18:46:34.449Z,65.98
2022-11-13T18:49:16.369Z,66.06
2022-11-13T18:51:58.279Z,66.39
2022-11-13T18:54:40.341Z,66.82
2022-11-13T18:57:22.350Z,66.25
2022-11-13T19:00:05.705Z,65.04
2022-11-13T19:02:50.145Z,64.66
2022-11-13T19:05:32.256Z,64.45
2022-11-13T19:08:14.634Z,64.29
2022-11-13T19:11:03.718Z,64.33
2022-11-13T19:13:47.199Z,63.99
2022-11-13T19:16:33.885Z,62.06
2022-11-13T19:19:18.916Z,63.22
2022-11-13T19:22:17.300Z,63.25
2022-11-13T19:24:59.336Z,64.11
2022-11-13T19:27:41.275Z,63.76
2022-11-13T19:30:23.318Z,63.41
2022-11-13T19:33:05.315Z,62.77
2022-11-13T19:35:47.519Z,62.58
2022-11-13T19:38:55.168Z,63.16
2022-11-13T19:41:42.139Z,62.75
2022-11-13T19:44:38.883Z,63.05
2022-11-13T19:47:27.276Z,63.27
2022-11-13T19:50:33.832Z,62.15
2022-11-13T19:53:22.420Z,62.96
2022-11-13T19:56:06.913Z,62.99
2022-11-13T19:58:53.062Z,63.77
2022-11-13T20:01:40.045Z,63.42
2022-11-13T20:04:23.351Z,63.36
2022-11-13T20:07:29.907Z,63.20
2022-11-13T20:10:26.399Z,62.60
2022-11-13T20:13:12.697Z,62.81
2022-11-13T20:15:58.831Z,63.34
2022-11-13T20:18:45.025Z,63.24
2022-11-13T20:21:40.414Z,63.08
2022-11-13T20:24:26.559Z,63.50
2022-11-13T20:27:12.581Z,63.07
2022-11-13T20:29:59.052Z,62.91
2022-11-13T20:32:45.405Z,63.82
2022-11-13T20:38:34.995Z,63.79
2022-11-13T20:41:21.901Z,63.58
2022-11-13T20:44:08.099Z,63.50
2022-11-13T20:47:15.926Z,63.71
2022-11-13T20:50:07.697Z,63.29
2022-11-13T20:52:53.727Z,63.54
2022-11-13T20:55:39.906Z,63.93
2022-11-13T20:58:26.075Z,63.83
2022-11-13T21:01:23.434Z,63.99
2022-11-13T21:04:09.459Z,63.78
2022-11-13T21:06:55.680Z,63.43
2022-11-13T21:14:03.315Z,63.77
2022-11-13T21:16:49.255Z,63.68
2022-11-13T21:19:35.899Z,64.63
2022-11-13T21:26:45.082Z,64.44
2022-11-13T21:29:31.263Z,65.60
2022-11-13T21:32:20.468Z,65.91
2022-11-13T21:35:02.248Z,66.12
2022-11-13T21:37:44.310Z,66.59
2022-11-13T21:40:37.274Z,66.55
2022-11-13T21:43:25.054Z,66.68
2022-11-13T21:46:07.443Z,65.77
2022-11-13T21:49:19.873Z,65.99
2022-11-13T21:52:06.361Z,66.11
2022-11-13T21:54:51.300Z,66.89
2022-11-13T21:57:37.978Z,66.54
2022-11-13T22:00:24.101Z,67.01
2022-11-13T22:03:10.290Z,67.66
2022-11-13T22:06:16.493Z,67.23
2022-11-13T22:09:05.283Z,67.17
2022-11-13T22:11:51.724Z,68.64
2022-11-13T22:14:37.829Z,69.03
2022-11-13T22:17:23.920Z,69.28
2022-11-13T22:20:10.158Z,69.06
2022-11-13T22:22:56.392Z,70.79
2022-11-13T22:25:42.333Z,69.59
2022-11-13T22:28:29.059Z,69.00
2022-11-13T22:31:23.624Z,67.61
2022-11-13T22:34:09.853Z,68.46
2022-11-13T22:36:55.962Z,66.89
2022-11-13T22:39:42.035Z,67.37
2022-11-13T22:42:28.076Z,68.89
2022-11-13T22:45:23.426Z,67.70
2022-11-13T22:48:11.092Z,68.38
2022-11-13T22:50:57.353Z,67.58
2022-11-13T22:53:47.661Z,69.30
2022-11-13T22:56:34.948Z,69.04
2022-11-13T22:59:21.379Z,67.80
2022-11-13T23:02:07.874Z,68.06
2022-11-13T23:04:54.010Z,70.03
2022-11-13T23:07:40.369Z,70.88
2022-11-13T23:10:30.250Z,69.83
2022-11-13T23:13:17.793Z,69.21
2022-11-13T23:16:03.926Z,69.53
2022-11-13T23:18:46.112Z,69.65
2022-11-13T23:21:45.798Z,70.15
2022-11-13T23:24:43.664Z,70.36
2022-11-13T23:27:30.685Z,69.79
2022-11-13T23:30:16.363Z,68.49
2022-11-13T23:33:02.452Z,69.17
2022-11-13T23:35:53.745Z,69.39
2022-11-13T23:38:41.301Z,67.83
2022-11-13T23:41:27.579Z,68.20
2022-11-13T23:44:13.764Z,68.00
2022-11-13T23:47:07.994Z,69.86
2022-11-13T23:49:54.130Z,69.64
2022-11-13T23:52:40.158Z,70.41
2022-11-13T23:55:26.399Z,70.21
2022-11-13T23:58:14.692Z,68.38
